sensor_id;sensor_type;location;lat;lon;timestamp;pressure;altitude;pressure_sealevel;temperature;humidity
66524;BME280;53350;52.210;5.160;2023-01-31T00:01:08;102505.66;;;5.89;69.00
66524;BME280;53350;52.210;5.160;2023-01-31T00:03:36;102508.97;;;5.87;69.02
66524;BME280;53350;52.210;5.160;2023-01-31T00:06:15;102512.25;;;5.83;69.05
66524;BME280;53350;52.210;5.160;2023-01-31T00:08:42;102504.56;;;5.83;69.21
66524;BME280;53350;52.210;5.160;2023-01-31T00:11:09;102498.50;;;5.81;69.53
66524;BME280;53350;52.210;5.160;2023-01-31T00:13:36;102501.91;;;5.80;69.34
66524;BME280;53350;52.210;5.160;2023-01-31T00:16:03;102499.31;;;5.78;69.66
66524;BME280;53350;52.210;5.160;2023-01-31T00:18:31;102493.31;;;5.78;69.36
66524;BME280;53350;52.210;5.160;2023-01-31T00:21:03;102471.94;;;5.75;69.69
66524;BME280;53350;52.210;5.160;2023-01-31T00:23:30;102472.78;;;5.76;69.72
66524;BME280;53350;52.210;5.160;2023-01-31T00:26:06;102464.25;;;5.75;69.91
66524;BME280;53350;52.210;5.160;2023-01-31T00:28:32;102462.63;;;5.78;70.38
66524;BME280;53350;52.210;5.160;2023-01-31T00:30:59;102462.56;;;5.76;70.50
66524;BME280;53350;52.210;5.160;2023-01-31T00:33:25;102446.38;;;5.75;70.46
66524;BME280;53350;52.210;5.160;2023-01-31T00:35:53;102442.97;;;5.75;70.46
66524;BME280;53350;52.210;5.160;2023-01-31T00:38:19;102425.88;;;5.74;70.30
66524;BME280;53350;52.210;5.160;2023-01-31T00:40:50;102431.78;;;5.73;70.80
66524;BME280;53350;52.210;5.160;2023-01-31T00:43:17;102422.50;;;5.75;70.62
66524;BME280;53350;52.210;5.160;2023-01-31T00:45:43;102419.94;;;5.75;70.45
66524;BME280;53350;52.210;5.160;2023-01-31T00:48:10;102413.94;;;5.74;70.69
66524;BME280;53350;52.210;5.160;2023-01-31T00:50:36;102411.38;;;5.74;70.88
66524;BME280;53350;52.210;5.160;2023-01-31T00:53:04;102413.13;;;5.75;70.45
66524;BME280;53350;52.210;5.160;2023-01-31T00:55:30;102411.38;;;5.74;70.52
66524;BME280;53350;52.210;5.160;2023-01-31T00:57:57;102404.53;;;5.73;70.46
66524;BME280;53350;52.210;5.160;2023-01-31T01:00:24;102406.16;;;5.71;70.37
66524;BME280;53350;52.210;5.160;2023-01-31T01:02:50;102398.41;;;5.68;70.43
66524;BME280;53350;52.210;5.160;2023-01-31T01:05:17;102412.84;;;5.66;70.46
66524;BME280;53350;52.210;5.160;2023-01-31T01:07:43;102416.16;;;5.64;71.10
66524;BME280;53350;52.210;5.160;2023-01-31T01:10:11;102405.00;;;5.62;71.31
66524;BME280;53350;52.210;5.160;2023-01-31T01:12:38;102405.88;;;5.62;71.34
66524;BME280;53350;52.210;5.160;2023-01-31T01:15:05;102396.50;;;5.63;70.99
66524;BME280;53350;52.210;5.160;2023-01-31T01:17:32;102405.09;;;5.65;71.06
66524;BME280;53350;52.210;5.160;2023-01-31T01:19:58;102407.66;;;5.65;71.27
66524;BME280;53350;52.210;5.160;2023-01-31T01:22:27;102399.13;;;5.64;71.12
66524;BME280;53350;52.210;5.160;2023-01-31T01:24:54;102398.22;;;5.62;71.62
66524;BME280;53350;52.210;5.160;2023-01-31T01:27:22;102408.34;;;5.59;70.81
66524;BME280;53350;52.210;5.160;2023-01-31T01:29:48;102407.34;;;5.55;71.16
66524;BME280;53350;52.210;5.160;2023-01-31T01:32:15;102407.19;;;5.51;71.39
66524;BME280;53350;52.210;5.160;2023-01-31T01:34:42;102413.06;;;5.48;71.44
66524;BME280;53350;52.210;5.160;2023-01-31T01:37:09;102407.03;;;5.46;70.91
66524;BME280;53350;52.210;5.160;2023-01-31T01:39:36;102411.16;;;5.43;71.91
66524;BME280;53350;52.210;5.160;2023-01-31T01:42:03;102407.69;;;5.40;71.65
66524;BME280;53350;52.210;5.160;2023-01-31T01:44:44;102412.66;;;5.36;71.39
66524;BME280;53350;52.210;5.160;2023-01-31T01:47:15;102422.75;;;5.33;72.10
66524;BME280;53350;52.210;5.160;2023-01-31T01:49:43;102426.19;;;5.33;72.30
66524;BME280;53350;52.210;5.160;2023-01-31T01:52:11;102426.25;;;5.35;72.35
66524;BME280;53350;52.210;5.160;2023-01-31T01:54:46;102420.31;;;5.36;72.60
66524;BME280;53350;52.210;5.160;2023-01-31T01:57:16;102417.78;;;5.36;72.64
66524;BME280;53350;52.210;5.160;2023-01-31T01:59:51;102425.53;;;5.39;72.94
66524;BME280;53350;52.210;5.160;2023-01-31T02:02:20;102419.59;;;5.40;72.95
66524;BME280;53350;52.210;5.160;2023-01-31T02:04:48;102417.09;;;5.42;72.93
66524;BME280;53350;52.210;5.160;2023-01-31T02:07:15;102414.72;;;5.46;73.42
66524;BME280;53350;52.210;5.160;2023-01-31T02:09:46;102416.63;;;5.52;73.68
66524;BME280;53350;52.210;5.160;2023-01-31T02:12:13;102416.63;;;5.52;73.59
66524;BME280;53350;52.210;5.160;2023-01-31T02:14:41;102423.50;;;5.54;73.74
66524;BME280;53350;52.210;5.160;2023-01-31T02:17:12;102420.06;;;5.54;73.08
66524;BME280;53350;52.210;5.160;2023-01-31T02:19:50;102416.81;;;5.58;73.54
66524;BME280;53350;52.210;5.160;2023-01-31T02:22:25;102409.19;;;5.60;73.63
66524;BME280;53350;52.210;5.160;2023-01-31T02:28:53;102412.50;;;5.57;74.62
66524;BME280;53350;52.210;5.160;2023-01-31T02:31:52;102399.81;;;5.60;74.38
66524;BME280;53350;52.210;5.160;2023-01-31T02:34:33;102403.31;;;5.62;74.38
66524;BME280;53350;52.210;5.160;2023-01-31T02:37:12;102393.19;;;5.65;74.60
66524;BME280;53350;52.210;5.160;2023-01-31T02:39:50;102385.47;;;5.64;75.21
66524;BME280;53350;52.210;5.160;2023-01-31T02:42:23;102385.66;;;5.70;74.71
66524;BME280;53350;52.210;5.160;2023-01-31T02:44:57;102382.34;;;5.72;74.93
66524;BME280;53350;52.210;5.160;2023-01-31T02:47:31;102378.19;;;5.76;75.44
66524;BME280;53350;52.210;5.160;2023-01-31T02:50:03;102380.97;;;5.82;75.26
66524;BME280;53350;52.210;5.160;2023-01-31T02:52:33;102367.44;;;5.86;75.27
66524;BME280;53350;52.210;5.160;2023-01-31T02:55:09;102370.16;;;5.91;75.22
66524;BME280;53350;52.210;5.160;2023-01-31T02:57:56;102373.69;;;5.95;75.60
66524;BME280;53350;52.210;5.160;2023-01-31T03:00:24;102376.34;;;5.98;75.52
66524;BME280;53350;52.210;5.160;2023-01-31T03:02:51;102368.78;;;6.01;75.67
66524;BME280;53350;52.210;5.160;2023-01-31T03:05:19;102380.00;;;6.04;75.84
66524;BME280;53350;52.210;5.160;2023-01-31T03:07:47;102373.22;;;6.06;75.90
66524;BME280;53350;52.210;5.160;2023-01-31T03:10:24;102370.78;;;6.11;76.09
66524;BME280;53350;52.210;5.160;2023-01-31T03:13:04;102375.22;;;6.17;76.00
66524;BME280;53350;52.210;5.160;2023-01-31T03:15:48;102346.97;;;6.12;76.57
66524;BME280;53350;52.210;5.160;2023-01-31T03:18:41;102359.19;;;6.22;76.00
66524;BME280;53350;52.210;5.160;2023-01-31T03:21:13;102366.03;;;6.22;76.27
66524;BME280;53350;52.210;5.160;2023-01-31T03:23:44;102361.00;;;6.25;76.76
66524;BME280;53350;52.210;5.160;2023-01-31T03:26:13;102359.34;;;6.27;76.14
66524;BME280;53350;52.210;5.160;2023-01-31T03:28:41;102359.47;;;6.30;75.98
66524;BME280;53350;52.210;5.160;2023-01-31T03:31:13;102356.97;;;6.33;76.91
66524;BME280;53350;52.210;5.160;2023-01-31T03:33:44;102344.22;;;6.35;77.02
66524;BME280;53350;52.210;5.160;2023-01-31T03:36:22;102333.03;;;6.31;76.68
66524;BME280;53350;52.210;5.160;2023-01-31T03:38:59;102324.81;;;6.43;77.05
66524;BME280;53350;52.210;5.160;2023-01-31T03:41:35;102315.50;;;6.45;76.54
66524;BME280;53350;52.210;5.160;2023-01-31T03:44:10;102318.13;;;6.47;76.72
66524;BME280;53350;52.210;5.160;2023-01-31T03:46:43;102320.72;;;6.48;77.14
66524;BME280;53350;52.210;5.160;2023-01-31T03:49:13;102314.66;;;6.44;77.03
66524;BME280;53350;52.210;5.160;2023-01-31T03:51:45;102328.28;;;6.43;76.91
66524;BME280;53350;52.210;5.160;2023-01-31T03:54:16;102305.06;;;6.37;77.02
66524;BME280;53350;52.210;5.160;2023-01-31T03:56:46;102327.47;;;6.44;76.77
66524;BME280;53350;52.210;5.160;2023-01-31T03:59:18;102320.63;;;6.45;77.00
66524;BME280;53350;52.210;5.160;2023-01-31T04:01:49;102318.84;;;6.42;76.50
66524;BME280;53350;52.210;5.160;2023-01-31T04:04:20;102308.47;;;6.38;76.91
66524;BME280;53350;52.210;5.160;2023-01-31T04:06:48;102309.44;;;6.41;77.20
66524;BME280;53350;52.210;5.160;2023-01-31T04:09:15;102310.31;;;6.42;76.92
66524;BME280;53350;52.210;5.160;2023-01-31T04:11:47;102302.59;;;6.40;77.10
66524;BME280;53350;52.210;5.160;2023-01-31T04:14:14;102302.72;;;6.45;77.61
66524;BME280;53350;52.210;5.160;2023-01-31T04:16:41;102301.91;;;6.46;77.14
66524;BME280;53350;52.210;5.160;2023-01-31T04:19:07;102301.13;;;6.50;77.79
66524;BME280;53350;52.210;5.160;2023-01-31T04:21:34;102295.13;;;6.48;77.83
66524;BME280;53350;52.210;5.160;2023-01-31T04:24:02;102294.34;;;6.51;77.89
66524;BME280;53350;52.210;5.160;2023-01-31T04:26:28;102286.78;;;6.55;78.48
66524;BME280;53350;52.210;5.160;2023-01-31T04:28:54;102292.91;;;6.60;78.37
66524;BME280;53350;52.210;5.160;2023-01-31T04:31:21;102290.53;;;6.67;78.50
66524;BME280;53350;52.210;5.160;2023-01-31T04:33:47;102291.41;;;6.69;78.28
66524;BME280;53350;52.210;5.160;2023-01-31T04:36:14;102285.50;;;6.71;78.23
66524;BME280;53350;52.210;5.160;2023-01-31T04:38:40;102284.50;;;6.66;78.24
66524;BME280;53350;52.210;5.160;2023-01-31T04:41:08;102285.44;;;6.68;78.64
66524;BME280;53350;52.210;5.160;2023-01-31T04:43:34;102279.53;;;6.71;78.54
66524;BME280;53350;52.210;5.160;2023-01-31T04:46:01;102283.00;;;6.73;78.48
66524;BME280;53350;52.210;5.160;2023-01-31T04:48:27;102278.84;;;6.76;78.93
66524;BME280;53350;52.210;5.160;2023-01-31T04:50:53;102281.47;;;6.79;78.65
66524;BME280;53350;52.210;5.160;2023-01-31T04:53:20;102277.22;;;6.80;78.53
66524;BME280;53350;52.210;5.160;2023-01-31T04:55:47;102278.19;;;6.84;78.53
66524;BME280;53350;52.210;5.160;2023-01-31T04:58:14;102272.25;;;6.86;78.53
66524;BME280;53350;52.210;5.160;2023-01-31T05:00:41;102267.13;;;6.86;78.64
66524;BME280;53350;52.210;5.160;2023-01-31T05:03:09;102274.88;;;6.89;78.43
66524;BME280;53350;52.210;5.160;2023-01-31T05:05:35;102275.84;;;6.93;78.82
66524;BME280;53350;52.210;5.160;2023-01-31T05:08:01;102267.38;;;6.95;78.61
66524;BME280;53350;52.210;5.160;2023-01-31T05:10:28;102258.81;;;6.95;78.34
66524;BME280;53350;52.210;5.160;2023-01-31T05:12:54;102261.41;;;6.96;78.70
66524;BME280;53350;52.210;5.160;2023-01-31T05:15:22;102265.75;;;6.99;78.38
66524;BME280;53350;52.210;5.160;2023-01-31T05:17:51;102264.97;;;7.02;78.52
66524;BME280;53350;52.210;5.160;2023-01-31T05:20:18;102270.97;;;7.04;78.51
66524;BME280;53350;52.210;5.160;2023-01-31T05:22:46;102263.22;;;7.01;78.11
66524;BME280;53350;52.210;5.160;2023-01-31T05:25:12;102255.56;;;7.02;78.28
66524;BME280;53350;52.210;5.160;2023-01-31T05:27:39;102253.94;;;7.04;78.42
66524;BME280;53350;52.210;5.160;2023-01-31T05:30:07;102245.47;;;7.07;78.46
66524;BME280;53350;52.210;5.160;2023-01-31T05:32:36;102239.50;;;7.08;78.29
66524;BME280;53350;52.210;5.160;2023-01-31T05:35:04;102248.03;;;7.07;77.88
66524;BME280;53350;52.210;5.160;2023-01-31T05:37:31;102240.38;;;7.08;78.13
66524;BME280;53350;52.210;5.160;2023-01-31T05:39:57;102245.50;;;7.08;78.08
66524;BME280;53350;52.210;5.160;2023-01-31T05:42:23;102248.13;;;7.11;78.14
66524;BME280;53350;52.210;5.160;2023-01-31T05:44:50;102250.75;;;7.14;78.18
66524;BME280;53350;52.210;5.160;2023-01-31T05:47:16;102234.44;;;7.11;78.28
66524;BME280;53350;52.210;5.160;2023-01-31T05:49:44;102242.13;;;7.11;78.15
66524;BME280;53350;52.210;5.160;2023-01-31T05:52:10;102245.56;;;7.11;78.17
66524;BME280;53350;52.210;5.160;2023-01-31T05:54:37;102231.72;;;7.05;78.38
66524;BME280;53350;52.210;5.160;2023-01-31T05:57:03;102230.94;;;7.07;78.29
66524;BME280;53350;52.210;5.160;2023-01-31T05:59:29;102237.81;;;7.08;78.32
66524;BME280;53350;52.210;5.160;2023-01-31T06:01:57;102238.72;;;7.10;77.90
66524;BME280;53350;52.210;5.160;2023-01-31T06:04:24;102221.66;;;7.12;78.18
66524;BME280;53350;52.210;5.160;2023-01-31T06:06:51;102218.25;;;7.12;78.39
66524;BME280;53350;52.210;5.160;2023-01-31T06:09:18;102221.72;;;7.14;78.05
66524;BME280;53350;52.210;5.160;2023-01-31T06:11:44;102209.72;;;7.13;77.92
66524;BME280;53350;52.210;5.160;2023-01-31T06:14:11;102207.22;;;7.14;78.08
66524;BME280;53350;52.210;5.160;2023-01-31T06:16:37;102216.63;;;7.16;78.80
66524;BME280;53350;52.210;5.160;2023-01-31T06:19:04;102213.16;;;7.13;78.22
66524;BME280;53350;52.210;5.160;2023-01-31T06:21:30;102216.59;;;7.14;78.65
66524;BME280;53350;52.210;5.160;2023-01-31T06:23:58;102216.59;;;7.14;78.25
66524;BME280;53350;52.210;5.160;2023-01-31T06:26:25;102217.38;;;7.11;78.73
66524;BME280;53350;52.210;5.160;2023-01-31T06:28:51;102214.94;;;7.16;78.81
66524;BME280;53350;52.210;5.160;2023-01-31T06:31:18;102219.28;;;7.19;78.49
66524;BME280;53350;52.210;5.160;2023-01-31T06:33:44;102208.22;;;7.21;78.51
66524;BME280;53350;52.210;5.160;2023-01-31T06:36:10;102209.13;;;7.23;78.76
66524;BME280;53350;52.210;5.160;2023-01-31T06:38:37;102200.63;;;7.24;78.76
66524;BME280;53350;52.210;5.160;2023-01-31T06:41:05;102201.53;;;7.28;78.94
66524;BME280;53350;52.210;5.160;2023-01-31T06:43:31;102201.53;;;7.28;78.92
66524;BME280;53350;52.210;5.160;2023-01-31T06:45:57;102195.59;;;7.29;78.76
66524;BME280;53350;52.210;5.160;2023-01-31T06:48:24;102191.38;;;7.32;78.77
66524;BME280;53350;52.210;5.160;2023-01-31T06:50:50;102181.16;;;7.34;79.00
66524;BME280;53350;52.210;5.160;2023-01-31T06:53:17;102173.50;;;7.36;79.01
66524;BME280;53350;52.210;5.160;2023-01-31T06:55:43;102179.59;;;7.39;79.03
66524;BME280;53350;52.210;5.160;2023-01-31T06:58:11;102180.41;;;7.38;78.79
66524;BME280;53350;52.210;5.160;2023-01-31T07:00:37;102176.19;;;7.40;79.01
66524;BME280;53350;52.210;5.160;2023-01-31T07:03:04;102172.81;;;7.43;78.64
66524;BME280;53350;52.210;5.160;2023-01-31T07:05:30;102171.09;;;7.42;78.54
66524;BME280;53350;52.210;5.160;2023-01-31T07:07:57;102178.84;;;7.45;79.01
66524;BME280;53350;52.210;5.160;2023-01-31T07:10:23;102165.19;;;7.44;78.65
66524;BME280;53350;52.210;5.160;2023-01-31T07:12:49;102179.84;;;7.52;78.47
66524;BME280;53350;52.210;5.160;2023-01-31T07:15:17;102180.81;;;7.57;78.54
66524;BME280;53350;52.210;5.160;2023-01-31T07:17:43;102169.84;;;7.62;78.44
66524;BME280;53350;52.210;5.160;2023-01-31T07:20:11;102174.19;;;7.66;78.41
66524;BME280;53350;52.210;5.160;2023-01-31T07:22:37;102168.34;;;7.72;78.15
66524;BME280;53350;52.210;5.160;2023-01-31T07:25:04;102163.22;;;7.74;78.15
66524;BME280;53350;52.210;5.160;2023-01-31T07:27:31;102164.16;;;7.77;77.92
66524;BME280;53350;52.210;5.160;2023-01-31T07:29:57;102167.66;;;7.81;78.28
66524;BME280;53350;52.210;5.160;2023-01-31T07:32:28;102167.75;;;7.86;77.93
66524;BME280;53350;52.210;5.160;2023-01-31T07:34:55;102168.59;;;7.86;77.99
66524;BME280;53350;52.210;5.160;2023-01-31T07:37:21;102165.28;;;7.90;77.77
66524;BME280;53350;52.210;5.160;2023-01-31T07:39:48;102155.94;;;7.94;78.13
66524;BME280;53350;52.210;5.160;2023-01-31T07:42:15;102152.56;;;7.96;77.69
66524;BME280;53350;52.210;5.160;2023-01-31T07:44:41;102147.44;;;7.98;77.58
66524;BME280;53350;52.210;5.160;2023-01-31T07:47:07;102151.69;;;7.96;77.83
66524;BME280;53350;52.210;5.160;2023-01-31T07:49:35;102142.28;;;7.96;78.05
66524;BME280;53350;52.210;5.160;2023-01-31T07:52:02;102135.44;;;7.95;78.32
66524;BME280;53350;52.210;5.160;2023-01-31T07:54:28;102122.72;;;8.00;78.06
66524;BME280;53350;52.210;5.160;2023-01-31T07:56:55;102130.53;;;8.08;77.92
66524;BME280;53350;52.210;5.160;2023-01-31T07:59:21;102117.72;;;8.08;77.81
66524;BME280;53350;52.210;5.160;2023-01-31T08:01:48;102121.16;;;8.08;78.03
66524;BME280;53350;52.210;5.160;2023-01-31T08:04:33;102121.25;;;8.13;77.65
66524;BME280;53350;52.210;5.160;2023-01-31T08:07:01;102120.34;;;8.12;77.41
66524;BME280;53350;52.210;5.160;2023-01-31T08:09:30;102113.53;;;8.13;77.54
66524;BME280;53350;52.210;5.160;2023-01-31T08:11:56;102116.09;;;8.13;77.52
66524;BME280;53350;52.210;5.160;2023-01-31T08:14:23;102094.72;;;8.14;77.50
66524;BME280;53350;52.210;5.160;2023-01-31T08:16:52;102093.81;;;8.10;77.40
66524;BME280;53350;52.210;5.160;2023-01-31T08:19:19;102094.72;;;8.14;77.44
66524;BME280;53350;52.210;5.160;2023-01-31T08:21:45;102098.22;;;8.17;77.19
66524;BME280;53350;52.210;5.160;2023-01-31T08:24:13;102091.41;;;8.19;76.69
66524;BME280;53350;52.210;5.160;2023-01-31T08:26:41;102087.13;;;8.18;76.86
66524;BME280;53350;52.210;5.160;2023-01-31T08:29:07;102088.84;;;8.19;76.62
66524;BME280;53350;52.210;5.160;2023-01-31T08:31:34;102091.41;;;8.19;77.12
66524;BME280;53350;52.210;5.160;2023-01-31T08:34:00;102089.81;;;8.26;76.60
66524;BME280;53350;52.210;5.160;2023-01-31T08:36:28;102099.31;;;8.30;76.38
66524;BME280;53350;52.210;5.160;2023-01-31T08:38:55;102085.56;;;8.28;76.42
66524;BME280;53350;52.210;5.160;2023-01-31T08:41:25;102083.94;;;8.32;76.33
66524;BME280;53350;52.210;5.160;2023-01-31T08:43:52;102091.66;;;8.33;76.03
66524;BME280;53350;52.210;5.160;2023-01-31T08:46:20;102089.94;;;8.34;76.50
66524;BME280;53350;52.210;5.160;2023-01-31T08:48:46;102088.31;;;8.39;75.95
66524;BME280;53350;52.210;5.160;2023-01-31T08:51:13;102076.28;;;8.36;75.94
66524;BME280;53350;52.210;5.160;2023-01-31T08:53:40;102097.78;;;8.42;75.79
66524;BME280;53350;52.210;5.160;2023-01-31T08:56:07;102100.34;;;8.40;76.02
66524;BME280;53350;52.210;5.160;2023-01-31T08:58:37;102102.06;;;8.43;76.04
66524;BME280;53350;52.210;5.160;2023-01-31T09:01:04;102102.06;;;8.43;75.95
66524;BME280;53350;52.210;5.160;2023-01-31T09:03:31;102094.41;;;8.44;76.02
66524;BME280;53350;52.210;5.160;2023-01-31T09:05:58;102096.16;;;8.45;75.95
66524;BME280;53350;52.210;5.160;2023-01-31T09:08:25;102085.84;;;8.44;76.24
66524;BME280;53350;52.210;5.160;2023-01-31T09:10:52;102085.81;;;8.42;76.20
66524;BME280;53350;52.210;5.160;2023-01-31T09:13:20;102089.34;;;8.46;76.30
66524;BME280;53350;52.210;5.160;2023-01-31T09:15:56;102079.16;;;8.52;75.79
66524;BME280;53350;52.210;5.160;2023-01-31T09:18:23;102072.31;;;8.54;75.76
66524;BME280;53350;52.210;5.160;2023-01-31T09:20:49;102062.09;;;8.57;75.91
66524;BME280;53350;52.210;5.160;2023-01-31T09:23:16;102070.72;;;8.59;76.03
66524;BME280;53350;52.210;5.160;2023-01-31T09:25:43;102057.91;;;8.62;76.08
66524;BME280;53350;52.210;5.160;2023-01-31T09:28:10;102058.88;;;8.69;75.86
66524;BME280;53350;52.210;5.160;2023-01-31T09:30:36;102070.88;;;8.72;75.59
66524;BME280;53350;52.210;5.160;2023-01-31T09:33:04;102063.31;;;8.78;75.55
66524;BME280;53350;52.210;5.160;2023-01-31T09:35:30;102059.06;;;8.81;75.21
66524;BME280;53350;52.210;5.160;2023-01-31T09:37:57;102060.78;;;8.82;75.35
66524;BME280;53350;52.210;5.160;2023-01-31T09:40:25;102053.09;;;8.84;74.94
66524;BME280;53350;52.210;5.160;2023-01-31T09:42:56;102050.53;;;8.84;75.43
66524;BME280;53350;52.210;5.160;2023-01-31T09:45:28;102062.59;;;8.90;75.04
66524;BME280;53350;52.210;5.160;2023-01-31T09:47:59;102044.59;;;8.86;75.42
66524;BME280;53350;52.210;5.160;2023-01-31T09:50:32;102043.66;;;8.83;75.28
66524;BME280;53350;52.210;5.160;2023-01-31T09:53:00;102046.31;;;8.89;75.53
66524;BME280;53350;52.210;5.160;2023-01-31T09:55:36;102054.88;;;8.88;75.36
66524;BME280;53350;52.210;5.160;2023-01-31T09:58:15;102066.97;;;8.94;75.54
66524;BME280;53350;52.210;5.160;2023-01-31T10:00:47;102062.66;;;8.93;75.78
66524;BME280;53350;52.210;5.160;2023-01-31T10:03:42;102050.66;;;8.95;75.97
66524;BME280;53350;52.210;5.160;2023-01-31T10:06:17;102053.25;;;8.96;76.07
66524;BME280;53350;52.210;5.160;2023-01-31T10:08:48;102056.78;;;9.01;75.99
66524;BME280;53350;52.210;5.160;2023-01-31T10:11:28;102047.38;;;9.05;75.66
66524;BME280;53350;52.210;5.160;2023-01-31T10:13:59;102040.59;;;9.09;75.50
66524;BME280;53350;52.210;5.160;2023-01-31T10:16:30;102044.91;;;9.11;75.32
66524;BME280;53350;52.210;5.160;2023-01-31T10:19:01;102043.19;;;9.10;75.41
66524;BME280;53350;52.210;5.160;2023-01-31T10:21:35;102047.53;;;9.16;75.56
66524;BME280;53350;52.210;5.160;2023-01-31T10:24:12;102048.34;;;9.13;75.59
66524;BME280;53350;52.210;5.160;2023-01-31T10:26:42;102039.84;;;9.17;75.50
66524;BME280;53350;52.210;5.160;2023-01-31T10:29:14;102051.00;;;9.19;75.70
66524;BME280;53350;52.210;5.160;2023-01-31T10:31:43;102035.69;;;9.27;75.46
66524;BME280;53350;52.210;5.160;2023-01-31T10:34:14;102040.81;;;9.24;75.86
66524;BME280;53350;52.210;5.160;2023-01-31T10:36:48;102033.09;;;9.26;76.30
66524;BME280;53350;52.210;5.160;2023-01-31T10:39:20;102028.88;;;9.32;76.06
66524;BME280;53350;52.210;5.160;2023-01-31T10:42:02;102036.72;;;9.40;76.08
66524;BME280;53350;52.210;5.160;2023-01-31T10:44:39;102029.88;;;9.44;76.35
66524;BME280;53350;52.210;5.160;2023-01-31T10:47:11;102029.88;;;9.42;76.71
66524;BME280;53350;52.210;5.160;2023-01-31T10:49:38;102043.72;;;9.55;76.52
66524;BME280;53350;52.210;5.160;2023-01-31T10:52:34;102036.00;;;9.55;76.88
66524;BME280;53350;52.210;5.160;2023-01-31T10:55:15;102039.41;;;9.52;76.77
66524;BME280;53350;52.210;5.160;2023-01-31T10:57:49;102046.28;;;9.53;77.09
66524;BME280;53350;52.210;5.160;2023-01-31T11:00:18;102042.84;;;9.53;77.26
66524;BME280;53350;52.210;5.160;2023-01-31T11:02:45;102048.84;;;9.53;77.63
66524;BME280;53350;52.210;5.160;2023-01-31T11:05:15;102048.88;;;9.55;77.83
66524;BME280;53350;52.210;5.160;2023-01-31T11:07:45;102048.91;;;9.58;78.08
66524;BME280;53350;52.210;5.160;2023-01-31T11:10:22;102050.53;;;9.51;78.26
66524;BME280;53350;52.210;5.160;2023-01-31T11:12:54;102053.06;;;9.47;78.70
66524;BME280;53350;52.210;5.160;2023-01-31T11:15:23;102053.03;;;9.45;78.74
66524;BME280;53350;52.210;5.160;2023-01-31T11:17:51;102059.91;;;9.45;78.94
66524;BME280;53350;52.210;5.160;2023-01-31T11:20:21;102046.16;;;9.46;78.83
66524;BME280;53350;52.210;5.160;2023-01-31T11:22:51;102047.06;;;9.46;78.89
66524;BME280;53350;52.210;5.160;2023-01-31T11:25:20;102042.81;;;9.50;78.81
66524;BME280;53350;52.210;5.160;2023-01-31T11:27:48;102054.84;;;9.54;78.76
66524;BME280;53350;52.210;5.160;2023-01-31T11:30:20;102042.03;;;9.57;78.53
66524;BME280;53350;52.210;5.160;2023-01-31T11:32:47;102022.34;;;9.59;78.30
66524;BME280;53350;52.210;5.160;2023-01-31T11:35:23;102030.09;;;9.62;77.85
66524;BME280;53350;52.210;5.160;2023-01-31T11:37:53;102024.16;;;9.68;77.50
66524;BME280;53350;52.210;5.160;2023-01-31T11:40:25;102027.59;;;9.70;77.19
66524;BME280;53350;52.210;5.160;2023-01-31T11:42:55;102025.03;;;9.71;77.29
66524;BME280;53350;52.210;5.160;2023-01-31T11:45:23;102013.06;;;9.72;77.02
66524;BME280;53350;52.210;5.160;2023-01-31T11:47:53;102023.38;;;9.77;76.72
66524;BME280;53350;52.210;5.160;2023-01-31T11:50:22;102015.69;;;9.78;76.78
66524;BME280;53350;52.210;5.160;2023-01-31T11:52:56;102010.56;;;9.81;76.73
66524;BME280;53350;52.210;5.160;2023-01-31T11:55:23;102006.28;;;9.83;76.56
66524;BME280;53350;52.210;5.160;2023-01-31T11:57:55;102002.91;;;9.89;76.04
66524;BME280;53350;52.210;5.160;2023-01-31T12:00:23;102002.06;;;9.91;76.13
66524;BME280;53350;52.210;5.160;2023-01-31T12:02:57;101990.09;;;9.94;76.04
66524;BME280;53350;52.210;5.160;2023-01-31T12:05:33;101986.66;;;9.96;76.05
66524;BME280;53350;52.210;5.160;2023-01-31T12:08:02;101981.53;;;9.98;76.03
66524;BME280;53350;52.210;5.160;2023-01-31T12:10:40;101988.44;;;10.03;75.96
66524;BME280;53350;52.210;5.160;2023-01-31T12:13:13;101971.31;;;10.07;75.72
66524;BME280;53350;52.210;5.160;2023-01-31T12:15:45;101972.16;;;10.03;75.74
66524;BME280;53350;52.210;5.160;2023-01-31T12:18:20;101971.31;;;10.05;75.72
66524;BME280;53350;52.210;5.160;2023-01-31T12:20:53;101970.53;;;10.14;75.72
66524;BME280;53350;52.210;5.160;2023-01-31T12:23:28;101979.16;;;10.22;75.43
66524;BME280;53350;52.210;5.160;2023-01-31T12:26:05;101978.31;;;10.23;75.47
66524;BME280;53350;52.210;5.160;2023-01-31T12:28:49;101966.28;;;10.22;75.51
66524;BME280;53350;52.210;5.160;2023-01-31T12:31:48;101950.91;;;10.30;75.21
66524;BME280;53350;52.210;5.160;2023-01-31T12:34:26;101955.25;;;10.34;75.12
66524;BME280;53350;52.210;5.160;2023-01-31T12:37:20;101963.00;;;10.39;74.97
66524;BME280;53350;52.210;5.160;2023-01-31T12:40:02;101955.28;;;10.42;75.10
66524;BME280;53350;52.210;5.160;2023-01-31T12:42:55;101947.56;;;10.42;75.03
66524;BME280;53350;52.210;5.160;2023-01-31T12:45:36;101954.47;;;10.51;74.54
66524;BME280;53350;52.210;5.160;2023-01-31T12:48:16;101955.34;;;10.50;75.07
66524;BME280;53350;52.210;5.160;2023-01-31T12:50:51;101945.94;;;10.58;74.42
66524;BME280;53350;52.210;5.160;2023-01-31T12:53:30;101937.38;;;10.60;74.38
66524;BME280;53350;52.210;5.160;2023-01-31T12:56:13;101945.09;;;10.59;74.30
66524;BME280;53350;52.210;5.160;2023-01-31T12:58:50;101947.66;;;10.56;74.29
66524;BME280;53350;52.210;5.160;2023-01-31T13:01:26;101939.97;;;10.62;74.38
66524;BME280;53350;52.210;5.160;2023-01-31T13:04:10;101941.66;;;10.61;74.32
66524;BME280;53350;52.210;5.160;2023-01-31T13:06:43;101936.53;;;10.63;74.37
66524;BME280;53350;52.210;5.160;2023-01-31T13:09:16;101930.53;;;10.67;74.69
66524;BME280;53350;52.210;5.160;2023-01-31T13:11:47;101939.97;;;10.70;73.92
66524;BME280;53350;52.210;5.160;2023-01-31T13:14:20;101933.09;;;10.69;74.37
66524;BME280;53350;52.210;5.160;2023-01-31T13:16:51;101930.56;;;10.72;74.13
66524;BME280;53350;52.210;5.160;2023-01-31T13:19:22;101938.31;;;10.78;74.08